sensor_id;sensor_type;location;lat;lon;timestamp;pressure;altitude;pressure_sealevel;temperature;humidity
51526;BME280;37611;51.794;21.590;2022-08-21T00:03:10;99592.14;;;20.42;85.97
51526;BME280;37611;51.794;21.590;2022-08-21T00:07:14;99587.19;;;20.39;86.05
51526;BME280;37611;51.794;21.590;2022-08-21T00:11:16;99591.02;;;20.37;86.25
51526;BME280;37611;51.794;21.590;2022-08-21T00:15:22;99592.15;;;20.35;86.19
51526;BME280;37611;51.794;21.590;2022-08-21T00:19:25;99583.52;;;20.30;85.94
51526;BME280;37611;51.794;21.590;2022-08-21T00:23:28;99583.89;;;20.27;86.44
51526;BME280;37611;51.794;21.590;2022-08-21T00:27:29;99587.75;;;20.24;86.56
51526;BME280;37611;51.794;21.590;2022-08-21T00:31:31;99586.02;;;20.21;87.05
51526;BME280;37611;51.794;21.590;2022-08-21T00:35:37;99588.66;;;20.20;86.77
51526;BME280;37611;51.794;21.590;2022-08-21T00:39:39;99584.71;;;20.21;86.87
51526;BME280;37611;51.794;21.590;2022-08-21T00:43:40;99584.38;;;20.19;87.43
51526;BME280;37611;51.794;21.590;2022-08-21T00:47:42;99582.69;;;20.15;87.16
51526;BME280;37611;51.794;21.590;2022-08-21T00:51:52;99581.09;;;20.09;87.24
51526;BME280;37611;51.794;21.590;2022-08-21T00:55:57;99573.52;;;20.03;87.23
51526;BME280;37611;51.794;21.590;2022-08-21T01:00:05;99573.86;;;20.00;87.65
51526;BME280;37611;51.794;21.590;2022-08-21T01:04:07;99570.05;;;19.96;87.93
51526;BME280;37611;51.794;21.590;2022-08-21T01:08:10;99562.80;;;19.88;88.82
51526;BME280;37611;51.794;21.590;2022-08-21T01:12:12;99556.15;;;19.81;88.92
51526;BME280;37611;51.794;21.590;2022-08-21T01:16:17;99558.64;;;19.79;89.52
51526;BME280;37611;51.794;21.590;2022-08-21T01:20:20;99554.36;;;19.71;89.85
51526;BME280;37611;51.794;21.590;2022-08-21T01:24:22;99555.45;;;19.64;90.43
51526;BME280;37611;51.794;21.590;2022-08-21T01:28:24;99556.32;;;19.56;90.91
51526;BME280;37611;51.794;21.590;2022-08-21T01:32:26;99560.25;;;19.49;91.58
51526;BME280;37611;51.794;21.590;2022-08-21T01:36:28;99554.20;;;19.44;91.70
51526;BME280;37611;51.794;21.590;2022-08-21T01:40:30;99556.38;;;19.41;91.69
51526;BME280;37611;51.794;21.590;2022-08-21T01:44:33;99552.39;;;19.33;92.00
51526;BME280;37611;51.794;21.590;2022-08-21T01:48:35;99546.30;;;19.26;92.48
51526;BME280;37611;51.794;21.590;2022-08-21T01:52:37;99541.60;;;19.21;92.24
51526;BME280;37611;51.794;21.590;2022-08-21T01:56:42;99538.07;;;19.19;92.47
51526;BME280;37611;51.794;21.590;2022-08-21T02:00:45;99535.06;;;19.16;92.93
51526;BME280;37611;51.794;21.590;2022-08-21T02:04:46;99532.06;;;19.08;93.35
51526;BME280;37611;51.794;21.590;2022-08-21T02:08:48;99528.89;;;19.04;93.51
51526;BME280;37611;51.794;21.590;2022-08-21T02:12:52;99530.78;;;18.99;93.99
51526;BME280;37611;51.794;21.590;2022-08-21T02:16:54;99527.96;;;18.98;93.77
51526;BME280;37611;51.794;21.590;2022-08-21T02:20:56;99524.86;;;18.99;93.81
51526;BME280;37611;51.794;21.590;2022-08-21T02:24:58;99526.88;;;18.97;94.23
51526;BME280;37611;51.794;21.590;2022-08-21T02:29:00;99522.36;;;18.93;94.05
51526;BME280;37611;51.794;21.590;2022-08-21T02:33:02;99516.30;;;18.88;94.46
51526;BME280;37611;51.794;21.590;2022-08-21T02:37:04;99515.31;;;18.85;94.37
51526;BME280;37611;51.794;21.590;2022-08-21T02:41:09;99516.71;;;18.88;94.51
51526;BME280;37611;51.794;21.590;2022-08-21T02:45:12;99516.33;;;18.85;94.56
51526;BME280;37611;51.794;21.590;2022-08-21T02:49:14;99517.52;;;18.79;94.80
51526;BME280;37611;51.794;21.590;2022-08-21T02:53:17;99517.98;;;18.72;95.17
51526;BME280;37611;51.794;21.590;2022-08-21T02:57:19;99517.12;;;18.64;95.09
51526;BME280;37611;51.794;21.590;2022-08-21T03:01:20;99510.77;;;18.56;95.78
51526;BME280;37611;51.794;21.590;2022-08-21T03:05:24;99506.66;;;18.50;96.19
51526;BME280;37611;51.794;21.590;2022-08-21T03:09:26;99505.41;;;18.47;96.10
51526;BME280;37611;51.794;21.590;2022-08-21T03:13:28;99508.24;;;18.43;96.63
51526;BME280;37611;51.794;21.590;2022-08-21T03:17:30;99505.02;;;18.38;96.87
51526;BME280;37611;51.794;21.590;2022-08-21T03:21:32;99503.44;;;18.38;97.03
51526;BME280;37611;51.794;21.590;2022-08-21T03:25:35;99506.66;;;18.38;97.36
51526;BME280;37611;51.794;21.590;2022-08-21T03:29:37;99504.21;;;18.33;97.62
51526;BME280;37611;51.794;21.590;2022-08-21T03:33:39;99506.82;;;18.27;97.63
51526;BME280;37611;51.794;21.590;2022-08-21T03:37:41;99507.52;;;18.20;98.16
51526;BME280;37611;51.794;21.590;2022-08-21T03:41:43;99506.12;;;18.17;98.70
51526;BME280;37611;51.794;21.590;2022-08-21T03:45:45;99503.80;;;18.13;98.68
51526;BME280;37611;51.794;21.590;2022-08-21T03:49:47;99502.06;;;18.08;98.95
51526;BME280;37611;51.794;21.590;2022-08-21T03:53:49;99504.06;;;18.08;99.32
51526;BME280;37611;51.794;21.590;2022-08-21T03:57:51;99501.83;;;18.09;99.20
51526;BME280;37611;51.794;21.590;2022-08-21T04:01:55;99502.52;;;18.14;99.00
51526;BME280;37611;51.794;21.590;2022-08-21T04:05:58;99501.36;;;18.16;99.17
51526;BME280;37611;51.794;21.590;2022-08-21T04:09:59;99500.06;;;18.22;98.97
51526;BME280;37611;51.794;21.590;2022-08-21T04:14:01;99493.05;;;18.26;98.89
51526;BME280;37611;51.794;21.590;2022-08-21T04:18:04;99490.85;;;18.29;98.79
51526;BME280;37611;51.794;21.590;2022-08-21T04:22:06;99487.92;;;18.40;98.53
51526;BME280;37611;51.794;21.590;2022-08-21T04:26:09;99491.57;;;18.51;98.61
51526;BME280;37611;51.794;21.590;2022-08-21T04:30:13;99492.09;;;18.63;98.27
51526;BME280;37611;51.794;21.590;2022-08-21T04:34:15;99489.40;;;18.80;97.61
51526;BME280;37611;51.794;21.590;2022-08-21T04:38:17;99488.45;;;18.94;97.34
51526;BME280;37611;51.794;21.590;2022-08-21T04:42:19;99493.13;;;19.07;96.98
51526;BME280;37611;51.794;21.590;2022-08-21T04:46:21;99494.78;;;19.18;96.74
51526;BME280;37611;51.794;21.590;2022-08-21T04:50:49;99500.73;;;19.32;96.44
51526;BME280;37611;51.794;21.590;2022-08-21T04:54:53;99498.03;;;19.47;96.02
51526;BME280;37611;51.794;21.590;2022-08-21T04:58:57;99495.80;;;19.68;95.61
51526;BME280;37611;51.794;21.590;2022-08-21T05:03:01;99496.05;;;19.78;95.00
51526;BME280;37611;51.794;21.590;2022-08-21T05:07:09;99494.10;;;19.92;94.77
51526;BME280;37611;51.794;21.590;2022-08-21T05:11:12;99497.90;;;20.11;93.95
51526;BME280;37611;51.794;21.590;2022-08-21T05:15:15;99501.55;;;20.24;93.58
51526;BME280;37611;51.794;21.590;2022-08-21T05:19:18;99502.38;;;20.38;93.09
51526;BME280;37611;51.794;21.590;2022-08-21T05:23:20;99504.02;;;20.55;92.47
51526;BME280;37611;51.794;21.590;2022-08-21T05:27:22;99508.65;;;20.66;91.85
51526;BME280;37611;51.794;21.590;2022-08-21T05:31:24;99511.69;;;20.79;91.43
51526;BME280;37611;51.794;21.590;2022-08-21T05:35:27;99517.38;;;20.97;90.60
51526;BME280;37611;51.794;21.590;2022-08-21T05:39:29;99525.84;;;21.04;89.73
51526;BME280;37611;51.794;21.590;2022-08-21T05:43:31;99532.29;;;20.99;90.20
51526;BME280;37611;51.794;21.590;2022-08-21T05:47:37;99529.09;;;21.18;89.89
51526;BME280;37611;51.794;21.590;2022-08-21T05:51:40;99528.21;;;21.26;89.38
51526;BME280;37611;51.794;21.590;2022-08-21T05:55:43;99524.90;;;21.35;89.09
51526;BME280;37611;51.794;21.590;2022-08-21T05:59:45;99531.52;;;21.51;88.72
51526;BME280;37611;51.794;21.590;2022-08-21T06:03:47;99524.77;;;21.49;88.20
51526;BME280;37611;51.794;21.590;2022-08-21T06:07:48;99522.58;;;21.56;88.43
51526;BME280;37611;51.794;21.590;2022-08-21T06:11:50;99515.02;;;21.74;88.47
51526;BME280;37611;51.794;21.590;2022-08-21T06:16:21;99522.09;;;21.90;87.55
51526;BME280;37611;51.794;21.590;2022-08-21T06:20:24;99520.02;;;22.02;87.10
51526;BME280;37611;51.794;21.590;2022-08-21T06:24:27;99517.11;;;22.17;86.93
51526;BME280;37611;51.794;21.590;2022-08-21T06:28:28;99517.20;;;22.34;86.11
51526;BME280;37611;51.794;21.590;2022-08-21T06:32:30;99515.75;;;22.44;85.59
51526;BME280;37611;51.794;21.590;2022-08-21T06:36:32;99518.59;;;22.57;85.11
51526;BME280;37611;51.794;21.590;2022-08-21T06:40:35;99514.75;;;22.67;84.39
51526;BME280;37611;51.794;21.590;2022-08-21T06:44:37;99518.10;;;22.82;83.98
51526;BME280;37611;51.794;21.590;2022-08-21T06:48:38;99517.36;;;22.94;83.37
51526;BME280;37611;51.794;21.590;2022-08-21T06:52:40;99522.98;;;23.02;82.63
51526;BME280;37611;51.794;21.590;2022-08-21T06:56:42;99522.91;;;23.05;82.44
51526;BME280;37611;51.794;21.590;2022-08-21T07:00:46;99517.41;;;23.12;82.20
51526;BME280;37611;51.794;21.590;2022-08-21T07:04:48;99520.31;;;23.20;82.43
51526;BME280;37611;51.794;21.590;2022-08-21T07:08:50;99524.11;;;23.36;82.40
51526;BME280;37611;51.794;21.590;2022-08-21T07:12:53;99530.34;;;23.57;81.90
51526;BME280;37611;51.794;21.590;2022-08-21T07:16:56;99531.30;;;23.64;81.10
51526;BME280;37611;51.794;21.590;2022-08-21T07:20:57;99535.95;;;23.84;80.75
51526;BME280;37611;51.794;21.590;2022-08-21T07:25:02;99531.98;;;24.06;79.68
51526;BME280;37611;51.794;21.590;2022-08-21T07:29:05;99530.31;;;24.23;78.80
51526;BME280;37611;51.794;21.590;2022-08-21T07:33:07;99528.70;;;24.41;77.95
51526;BME280;37611;51.794;21.590;2022-08-21T07:37:08;99525.50;;;24.49;76.77
51526;BME280;37611;51.794;21.590;2022-08-21T07:41:15;99523.86;;;24.52;76.12
51526;BME280;37611;51.794;21.590;2022-08-21T07:45:21;99519.41;;;24.53;75.27
51526;BME280;37611;51.794;21.590;2022-08-21T07:49:23;99516.15;;;24.43;74.55
51526;BME280;37611;51.794;21.590;2022-08-21T07:53:24;99511.56;;;24.47;75.00
51526;BME280;37611;51.794;21.590;2022-08-21T07:57:26;99505.68;;;24.56;74.97
51526;BME280;37611;51.794;21.590;2022-08-21T08:01:28;99507.06;;;24.80;75.03
51526;BME280;37611;51.794;21.590;2022-08-21T08:05:31;99502.91;;;24.94;72.72
51526;BME280;37611;51.794;21.590;2022-08-21T08:09:33;99500.25;;;24.98;72.74
51526;BME280;37611;51.794;21.590;2022-08-21T08:13:40;99495.23;;;25.15;72.35
51526;BME280;37611;51.794;21.590;2022-08-21T08:17:42;99494.61;;;25.29;70.73
51526;BME280;37611;51.794;21.590;2022-08-21T08:21:44;99498.73;;;25.39;70.63
51526;BME280;37611;51.794;21.590;2022-08-21T08:25:45;99493.83;;;25.50;70.39
51526;BME280;37611;51.794;21.590;2022-08-21T08:29:48;99486.35;;;25.62;69.70
51526;BME280;37611;51.794;21.590;2022-08-21T08:33:50;99479.38;;;25.66;69.40
51526;BME280;37611;51.794;21.590;2022-08-21T08:37:52;99483.33;;;25.82;68.86
51526;BME280;37611;51.794;21.590;2022-08-21T08:42:13;99486.95;;;25.84;68.07
51526;BME280;37611;51.794;21.590;2022-08-21T08:46:19;99484.34;;;25.67;68.30
51526;BME280;37611;51.794;21.590;2022-08-21T08:50:38;99478.77;;;25.48;68.08
51526;BME280;37611;51.794;21.590;2022-08-21T08:54:45;99481.33;;;25.46;67.75
51526;BME280;37611;51.794;21.590;2022-08-21T08:58:51;99486.48;;;25.43;67.73
51526;BME280;37611;51.794;21.590;2022-08-21T09:02:56;99485.94;;;25.28;68.43
51526;BME280;37611;51.794;21.590;2022-08-21T09:11:56;99485.48;;;25.56;66.69
51526;BME280;37611;51.794;21.590;2022-08-21T09:25:42;99478.52;;;26.25;63.08
51526;BME280;37611;51.794;21.590;2022-08-21T09:29:51;99476.74;;;26.28;63.21
51526;BME280;37611;51.794;21.590;2022-08-21T09:34:06;99479.04;;;26.49;63.38
51526;BME280;37611;51.794;21.590;2022-08-21T09:38:10;99479.95;;;26.62;62.00
51526;BME280;37611;51.794;21.590;2022-08-21T09:42:25;99471.91;;;26.76;61.63
51526;BME280;37611;51.794;21.590;2022-08-21T09:46:28;99472.59;;;26.85;61.10
51526;BME280;37611;51.794;21.590;2022-08-21T09:50:30;99473.52;;;26.84;61.28
51526;BME280;37611;51.794;21.590;2022-08-21T09:54:38;99474.71;;;26.75;62.06
51526;BME280;37611;51.794;21.590;2022-08-21T09:58:43;99474.50;;;26.56;62.72
51526;BME280;37611;51.794;21.590;2022-08-21T10:02:46;99470.78;;;26.60;62.69
51526;BME280;37611;51.794;21.590;2022-08-21T10:06:47;99469.23;;;26.64;62.81
51526;BME280;37611;51.794;21.590;2022-08-21T10:10:57;99469.76;;;26.78;62.97
51526;BME280;37611;51.794;21.590;2022-08-21T10:23:41;99475.11;;;27.41;61.03
51526;BME280;37611;51.794;21.590;2022-08-21T10:36:19;99463.46;;;27.00;60.48
51526;BME280;37611;51.794;21.590;2022-08-21T10:40:30;99458.28;;;26.69;61.83
51526;BME280;37611;51.794;21.590;2022-08-21T10:49:52;99459.95;;;26.59;61.73
51526;BME280;37611;51.794;21.590;2022-08-21T10:54:26;99460.29;;;26.56;61.48
51526;BME280;37611;51.794;21.590;2022-08-21T10:58:38;99454.40;;;26.73;61.47
51526;BME280;37611;51.794;21.590;2022-08-21T11:02:57;99448.11;;;26.93;60.92
51526;BME280;37611;51.794;21.590;2022-08-21T11:07:09;99450.38;;;27.12;60.09
51526;BME280;37611;51.794;21.590;2022-08-21T11:15:50;99445.02;;;26.97;59.15
51526;BME280;37611;51.794;21.590;2022-08-21T11:20:08;99448.77;;;26.88;60.24
51526;BME280;37611;51.794;21.590;2022-08-21T11:24:31;99444.19;;;26.83;60.66
51526;BME280;37611;51.794;21.590;2022-08-21T11:28:55;99446.02;;;26.82;61.19
51526;BME280;37611;51.794;21.590;2022-08-21T11:50:21;99435.86;;;26.14;63.24
51526;BME280;37611;51.794;21.590;2022-08-21T11:54:40;99435.70;;;26.12;63.72
51526;BME280;37611;51.794;21.590;2022-08-21T11:58:51;99438.50;;;26.13;64.06
51526;BME280;37611;51.794;21.590;2022-08-21T12:03:05;99436.39;;;26.16;64.17
51526;BME280;37611;51.794;21.590;2022-08-21T12:07:17;99436.45;;;26.27;64.06
51526;BME280;37611;51.794;21.590;2022-08-21T12:11:29;99433.40;;;26.48;63.38
51526;BME280;37611;51.794;21.590;2022-08-21T12:15:32;99431.45;;;26.60;62.40
51526;BME280;37611;51.794;21.590;2022-08-21T12:19:34;99430.50;;;26.61;62.13
51526;BME280;37611;51.794;21.590;2022-08-21T12:28:02;99435.09;;;26.80;60.97
51526;BME280;37611;51.794;21.590;2022-08-21T12:36:20;99441.06;;;27.05;60.35
51526;BME280;37611;51.794;21.590;2022-08-21T12:40:27;99448.47;;;27.00;60.52
51526;BME280;37611;51.794;21.590;2022-08-21T12:44:38;99444.79;;;26.84;61.08
51526;BME280;37611;51.794;21.590;2022-08-21T12:48:51;99448.22;;;26.67;62.06
51526;BME280;37611;51.794;21.590;2022-08-21T12:57:08;99447.31;;;26.52;61.10
51526;BME280;37611;51.794;21.590;2022-08-21T13:01:19;99450.05;;;26.46;61.43
51526;BME280;37611;51.794;21.590;2022-08-21T13:05:30;99448.33;;;26.44;62.05
51526;BME280;37611;51.794;21.590;2022-08-21T13:09:33;99451.34;;;26.52;62.33
51526;BME280;37611;51.794;21.590;2022-08-21T13:13:35;99447.09;;;26.62;61.88
51526;BME280;37611;51.794;21.590;2022-08-21T13:17:42;99449.89;;;26.55;61.11
51526;BME280;37611;51.794;21.590;2022-08-21T13:21:46;99457.18;;;26.21;61.85
51526;BME280;37611;51.794;21.590;2022-08-21T13:25:48;99453.94;;;26.06;62.83
51526;BME280;37611;51.794;21.590;2022-08-21T13:30:11;99448.55;;;26.00;63.22
51526;BME280;37611;51.794;21.590;2022-08-21T13:34:14;99438.31;;;25.94;63.67
51526;BME280;37611;51.794;21.590;2022-08-21T13:38:19;99440.06;;;25.84;63.32
51526;BME280;37611;51.794;21.590;2022-08-21T13:42:21;99436.94;;;25.66;63.80
51526;BME280;37611;51.794;21.590;2022-08-21T13:46:29;99442.84;;;25.62;64.30
51526;BME280;37611;51.794;21.590;2022-08-21T13:50:33;99438.02;;;25.69;64.39
51526;BME280;37611;51.794;21.590;2022-08-21T13:54:41;99431.48;;;25.78;64.14
51526;BME280;37611;51.794;21.590;2022-08-21T13:58:46;99429.03;;;25.71;64.34
51526;BME280;37611;51.794;21.590;2022-08-21T14:02:51;99426.45;;;25.72;64.35
51526;BME280;37611;51.794;21.590;2022-08-21T14:06:54;99428.19;;;25.77;64.61
51526;BME280;37611;51.794;21.590;2022-08-21T14:10:56;99438.05;;;25.62;64.70
51526;BME280;37611;51.794;21.590;2022-08-21T14:15:03;99439.39;;;25.44;65.52
51526;BME280;37611;51.794;21.590;2022-08-21T14:19:20;99437.14;;;25.34;65.97
51526;BME280;37611;51.794;21.590;2022-08-21T14:23:25;99440.23;;;25.38;65.96
51526;BME280;37611;51.794;21.590;2022-08-21T14:27:29;99441.16;;;25.40;65.74
51526;BME280;37611;51.794;21.590;2022-08-21T14:31:32;99443.26;;;25.44;65.73
51526;BME280;37611;51.794;21.590;2022-08-21T14:35:36;99440.77;;;25.42;66.06
51526;BME280;37611;51.794;21.590;2022-08-21T14:39:38;99444.28;;;25.43;66.43
51526;BME280;37611;51.794;21.590;2022-08-21T14:43:39;99441.59;;;25.39;66.00
51526;BME280;37611;51.794;21.590;2022-08-21T14:47:41;99436.02;;;25.34;65.52
51526;BME280;37611;51.794;21.590;2022-08-21T14:51:44;99435.45;;;25.27;65.11
51526;BME280;37611;51.794;21.590;2022-08-21T14:55:45;99432.09;;;25.18;65.25
51526;BME280;37611;51.794;21.590;2022-08-21T15:00:06;99441.41;;;25.16;65.95
51526;BME280;37611;51.794;21.590;2022-08-21T15:04:10;99441.02;;;25.03;66.67
51526;BME280;37611;51.794;21.590;2022-08-21T15:08:12;99447.55;;;25.04;66.28
51526;BME280;37611;51.794;21.590;2022-08-21T15:12:14;99447.27;;;25.00;66.02
51526;BME280;37611;51.794;21.590;2022-08-21T15:16:16;99443.61;;;24.90;65.98
51526;BME280;37611;51.794;21.590;2022-08-21T15:20:18;99444.45;;;24.84;66.27
51526;BME280;37611;51.794;21.590;2022-08-21T15:24:20;99452.84;;;24.78;66.97
51526;BME280;37611;51.794;21.590;2022-08-21T15:28:21;99454.59;;;24.76;66.88
51526;BME280;37611;51.794;21.590;2022-08-21T15:32:26;99452.36;;;24.71;66.41
51526;BME280;37611;51.794;21.590;2022-08-21T15:36:29;99454.59;;;24.59;66.50
51526;BME280;37611;51.794;21.590;2022-08-21T15:40:32;99454.83;;;24.50;66.34
51526;BME280;37611;51.794;21.590;2022-08-21T15:44:35;99455.34;;;24.40;66.63
51526;BME280;37611;51.794;21.590;2022-08-21T15:48:36;99456.74;;;24.39;66.91
51526;BME280;37611;51.794;21.590;2022-08-21T15:52:39;99459.58;;;24.36;67.22
51526;BME280;37611;51.794;21.590;2022-08-21T15:56:44;99458.31;;;24.32;67.49
51526;BME280;37611;51.794;21.590;2022-08-21T16:00:48;99455.61;;;24.23;67.36
51526;BME280;37611;51.794;21.590;2022-08-21T16:04:50;99454.06;;;24.19;67.52
51526;BME280;37611;51.794;21.590;2022-08-21T16:08:52;99451.55;;;24.14;67.22
51526;BME280;37611;51.794;21.590;2022-08-21T16:13:04;99453.59;;;24.09;67.40
51526;BME280;37611;51.794;21.590;2022-08-21T16:17:08;99454.34;;;24.03;67.73
51526;BME280;37611;51.794;21.590;2022-08-21T16:21:10;99450.61;;;24.01;67.87
51526;BME280;37611;51.794;21.590;2022-08-21T16:25:13;99448.31;;;23.94;68.16
51526;BME280;37611;51.794;21.590;2022-08-21T16:29:15;99448.48;;;23.90;68.50
51526;BME280;37611;51.794;21.590;2022-08-21T16:33:43;99444.27;;;23.88;68.44
51526;BME280;37611;51.794;21.590;2022-08-21T16:37:43;99437.98;;;23.81;68.69
51526;BME280;37611;51.794;21.590;2022-08-21T16:41:46;99438.91;;;23.78;68.96
51526;BME280;37611;51.794;21.590;2022-08-21T16:45:50;99447.27;;;23.72;69.17
51526;BME280;37611;51.794;21.590;2022-08-21T16:49:51;99459.28;;;23.65;69.51
51526;BME280;37611;51.794;21.590;2022-08-21T16:53:54;99456.58;;;23.59;69.75
51526;BME280;37611;51.794;21.590;2022-08-21T16:57:56;99453.70;;;23.51;70.18
51526;BME280;37611;51.794;21.590;2022-08-21T17:01:57;99455.12;;;23.44;70.63
51526;BME280;37611;51.794;21.590;2022-08-21T17:06:00;99457.73;;;23.38;70.89
51526;BME280;37611;51.794;21.590;2022-08-21T17:10:04;99463.58;;;23.34;71.44
51526;BME280;37611;51.794;21.590;2022-08-21T17:14:10;99464.82;;;23.31;71.96
51526;BME280;37611;51.794;21.590;2022-08-21T17:18:17;99460.66;;;23.24;72.25
51526;BME280;37611;51.794;21.590;2022-08-21T17:22:19;99461.61;;;23.11;72.36
51526;BME280;37611;51.794;21.590;2022-08-21T17:26:21;99461.46;;;23.04;72.65
51526;BME280;37611;51.794;21.590;2022-08-21T17:30:24;99468.40;;;22.95;72.97
51526;BME280;37611;51.794;21.590;2022-08-21T17:34:26;99472.98;;;22.87;73.47
51526;BME280;37611;51.794;21.590;2022-08-21T17:38:28;99472.26;;;22.82;73.76
51526;BME280;37611;51.794;21.590;2022-08-21T17:42:30;99476.12;;;22.75;74.11
51526;BME280;37611;51.794;21.590;2022-08-21T17:46:32;99478.23;;;22.66;74.42
51526;BME280;37611;51.794;21.590;2022-08-21T17:50:35;99484.77;;;22.54;74.66
51526;BME280;37611;51.794;21.590;2022-08-21T17:54:37;99483.27;;;22.45;74.77
51526;BME280;37611;51.794;21.590;2022-08-21T17:58:45;99486.73;;;22.33;75.17
51526;BME280;37611;51.794;21.590;2022-08-21T18:02:54;99486.61;;;22.26;75.49
51526;BME280;37611;51.794;21.590;2022-08-21T18:06:58;99479.84;;;22.16;75.75
51526;BME280;37611;51.794;21.590;2022-08-21T18:11:00;99479.09;;;22.06;75.93
51526;BME280;37611;51.794;21.590;2022-08-21T18:15:02;99481.71;;;21.96;76.21
51526;BME280;37611;51.794;21.590;2022-08-21T18:19:09;99485.89;;;21.85;76.38
51526;BME280;37611;51.794;21.590;2022-08-21T18:23:12;99487.83;;;21.75;76.97
51526;BME280;37611;51.794;21.590;2022-08-21T18:27:14;99491.67;;;21.69;77.33
51526;BME280;37611;51.794;21.590;2022-08-21T18:31:15;99494.45;;;21.64;77.65
51526;BME280;37611;51.794;21.590;2022-08-21T18:35:18;99495.27;;;21.59;77.81
51526;BME280;37611;51.794;21.590;2022-08-21T18:39:20;99504.34;;;21.53;77.80
51526;BME280;37611;51.794;21.590;2022-08-21T18:43:22;99502.37;;;21.46;77.89
51526;BME280;37611;51.794;21.590;2022-08-21T18:47:56;99504.85;;;21.42;78.42
51526;BME280;37611;51.794;21.590;2022-08-21T18:51:55;99504.39;;;21.38;78.53
51526;BME280;37611;51.794;21.590;2022-08-21T18:55:57;99503.45;;;21.35;79.01
51526;BME280;37611;51.794;21.590;2022-08-21T18:59:59;99509.45;;;21.33;78.87
51526;BME280;37611;51.794;21.590;2022-08-21T19:04:02;99510.74;;;21.28;78.86
51526;BME280;37611;51.794;21.590;2022-08-21T19:08:04;99517.55;;;21.25;78.96
51526;BME280;37611;51.794;21.590;2022-08-21T19:12:06;99513.51;;;21.21;79.27
51526;BME280;37611;51.794;21.590;2022-08-21T19:16:09;99519.51;;;21.17;79.68
51526;BME280;37611;51.794;21.590;2022-08-21T19:20:15;99515.14;;;21.15;79.89
51526;BME280;37611;51.794;21.590;2022-08-21T19:24:18;99517.39;;;21.11;80.01
51526;BME280;37611;51.794;21.590;2022-08-21T19:28:28;99517.53;;;21.08;79.98
51526;BME280;37611;51.794;21.590;2022-08-21T19:32:31;99520.29;;;21.04;80.17
51526;BME280;37611;51.794;21.590;2022-08-21T19:36:33;99519.55;;;21.02;80.46
51526;BME280;37611;51.794;21.590;2022-08-21T19:40:35;99522.98;;;21.00;80.92
51526;BME280;37611;51.794;21.590;2022-08-21T19:44:38;99521.77;;;20.98;81.12
51526;BME280;37611;51.794;21.590;2022-08-21T19:48:40;99522.06;;;20.93;81.11
51526;BME280;37611;51.794;21.590;2022-08-21T19:52:42;99524.65;;;20.87;81.36
51526;BME280;37611;51.794;21.590;2022-08-21T19:56:45;99523.17;;;20.79;81.65
51526;BME280;37611;51.794;21.590;2022-08-21T20:00:47;99524.02;;;20.70;82.03
51526;BME280;37611;51.794;21.590;2022-08-21T20:04:49;99524.92;;;20.65;82.64
51526;BME280;37611;51.794;21.590;2022-08-21T20:08:52;99522.16;;;20.60;83.18
51526;BME280;37611;51.794;21.590;2022-08-21T20:12:55;99519.79;;;20.58;83.42
51526;BME280;37611;51.794;21.590;2022-08-21T20:17:00;99514.97;;;20.56;83.44
51526;BME280;37611;51.794;21.590;2022-08-21T20:21:05;99516.84;;;20.52;83.63
51526;BME280;37611;51.794;21.590;2022-08-21T20:25:07;99514.34;;;20.47;83.67
51526;BME280;37611;51.794;21.590;2022-08-21T20:29:09;99513.13;;;20.45;84.20
51526;BME280;37611;51.794;21.590;2022-08-21T20:33:12;99516.30;;;20.42;84.37
51526;BME280;37611;51.794;21.590;2022-08-21T20:37:14;99515.82;;;20.38;84.72
51526;BME280;37611;51.794;21.590;2022-08-21T20:41:18;99510.38;;;20.32;84.64
51526;BME280;37611;51.794;21.590;2022-08-21T20:45:25;99502.19;;;20.22;84.88
51526;BME280;37611;51.794;21.590;2022-08-21T20:49:32;99504.16;;;20.12;85.81
51526;BME280;37611;51.794;21.590;2022-08-21T20:53:51;99497.27;;;20.04;85.94
51526;BME280;37611;51.794;21.590;2022-08-21T20:58:01;99498.02;;;19.99;86.33
51526;BME280;37611;51.794;21.590;2022-08-21T21:06:26;99504.48;;;19.98;86.52
51526;BME280;37611;51.794;21.590;2022-08-21T21:14:44;99504.32;;;19.94;86.92
51526;BME280;37611;51.794;21.590;2022-08-21T21:23:28;99501.44;;;19.80;87.47
51526;BME280;37611;51.794;21.590;2022-08-21T21:27:38;99502.86;;;19.74;87.88
51526;BME280;37611;51.794;21.590;2022-08-21T21:31:41;99498.92;;;19.70;88.36
51526;BME280;37611;51.794;21.590;2022-08-21T21:35:50;99495.70;;;19.69;89.04
51526;BME280;37611;51.794;21.590;2022-08-21T21:44:26;99497.63;;;19.59;89.69
51526;BME280;37611;51.794;21.590;2022-08-21T22:06:14;99500.64;;;19.44;91.47
51526;BME280;37611;51.794;21.590;2022-08-21T22:14:34;99500.34;;;19.37;92.35
51526;BME280;37611;51.794;21.590;2022-08-21T22:18:44;99508.11;;;19.37;92.70
51526;BME280;37611;51.794;21.590;2022-08-21T22:22:50;99505.60;;;19.37;92.82
51526;BME280;37611;51.794;21.590;2022-08-21T22:26:58;99503.27;;;19.37;92.96
51526;BME280;37611;51.794;21.590;2022-08-21T22:35:24;99505.08;;;19.31;92.61
51526;BME280;37611;51.794;21.590;2022-08-21T22:39:34;99508.15;;;19.27;93.24
51526;BME280;37611;51.794;21.590;2022-08-21T22:43:36;99504.98;;;19.21;94.01
51526;BME280;37611;51.794;21.590;2022-08-21T22:47:40;99502.61;;;19.17;94.44
51526;BME280;37611;51.794;21.590;2022-08-21T22:51:45;99492.11;;;19.15;94.52
51526;BME280;37611;51.794;21.590;2022-08-21T22:55:56;99492.49;;;19.12;94.69
51526;BME280;37611;51.794;21.590;2022-08-21T23:00:04;99491.42;;;19.09;94.96
51526;BME280;37611;51.794;21.590;2022-08-21T23:04:21;99495.24;;;19.07;94.95
51526;BME280;37611;51.794;21.590;2022-08-21T23:08:33;99494.27;;;19.10;94.88
51526;BME280;37611;51.794;21.590;2022-08-21T23:12:38;99497.42;;;19.16;94.90
51526;BME280;37611;51.794;21.590;2022-08-21T23:17:03;99497.50;;;19.16;95.10